createdAt,value
2017-08-19T00:01:01.212Z,23.6
2017-08-19T00:02:09.308Z,23.6
2017-08-19T00:03:17.396Z,23.6
2017-08-19T00:04:25.488Z,23.6
2017-08-19T00:05:33.571Z,23.6
2017-08-19T00:06:41.660Z,23.7
2017-08-19T00:07:49.750Z,23.6
2017-08-19T00:08:57.838Z,23.6
2017-08-19T00:10:05.952Z,23.6
2017-08-19T00:11:14.023Z,23.6
2017-08-19T00:12:22.112Z,23.6
2017-08-19T00:13:30.209Z,23.6
2017-08-19T00:14:38.297Z,23.6
2017-08-19T00:15:46.385Z,23.6
2017-08-19T00:16:54.474Z,23.6
2017-08-19T00:18:02.649Z,23.6
2017-08-19T00:19:10.657Z,23.7
2017-08-19T00:20:18.739Z,23.6
2017-08-19T00:21:26.827Z,23.6
2017-08-19T00:22:34.914Z,23.6
2017-08-19T00:23:43.003Z,23.6
2017-08-19T00:24:51.096Z,23.6
2017-08-19T00:25:59.180Z,23.6
2017-08-19T00:27:07.269Z,23.6
2017-08-19T00:28:15.358Z,23.6
2017-08-19T00:29:23.451Z,23.6
2017-08-19T00:30:31.534Z,23.6
2017-08-19T00:31:39.624Z,23.5
2017-08-19T00:32:47.713Z,23.6
2017-08-19T00:33:55.801Z,23.6
2017-08-19T00:35:03.889Z,23.6
2017-08-19T00:36:11.977Z,23.5
2017-08-19T00:37:20.073Z,23.6
2017-08-19T00:38:28.155Z,23.5
2017-08-19T00:39:36.244Z,23.6
2017-08-19T00:40:44.333Z,23.5
2017-08-19T00:41:52.419Z,23.5
2017-08-19T00:43:00.507Z,23.5
2017-08-19T00:44:08.604Z,23.5
2017-08-19T00:45:16.684Z,23.6
2017-08-19T00:46:24.787Z,23.5
2017-08-19T00:47:32.867Z,23.5
2017-08-19T00:48:40.952Z,23.6
2017-08-19T00:49:49.039Z,23.5
2017-08-19T00:50:57.129Z,23.6
2017-08-19T00:52:05.215Z,23.6
2017-08-19T00:53:13.304Z,23.6
2017-08-19T00:54:21.392Z,23.5
2017-08-19T00:55:29.485Z,23.6
2017-08-19T00:56:37.575Z,23.6
2017-08-19T00:57:45.667Z,23.6
2017-08-19T00:58:53.752Z,23.5
2017-08-19T01:00:01.835Z,23.5
2017-08-19T01:01:09.926Z,23.4
2017-08-19T01:02:18.017Z,23.5
2017-08-19T01:03:26.103Z,23.5
2017-08-19T01:04:34.196Z,23.4
2017-08-19T01:05:42.282Z,23.4
2017-08-19T01:06:50.391Z,23.5
2017-08-19T01:07:58.458Z,23.5
2017-08-19T01:09:06.546Z,23.5
2017-08-19T01:10:14.633Z,23.5
2017-08-19T01:11:22.723Z,23.5
2017-08-19T01:12:30.813Z,23.4
2017-08-19T01:13:38.900Z,23.4
2017-08-19T01:14:46.990Z,23.5
2017-08-19T01:15:55.078Z,23.4
2017-08-19T01:17:03.168Z,23.5
2017-08-19T01:18:11.255Z,23.4
2017-08-19T01:19:19.342Z,23.5
2017-08-19T01:20:27.431Z,23.4
2017-08-19T01:21:35.523Z,23.4
2017-08-19T01:22:43.611Z,23.4
2017-08-19T01:23:51.706Z,23.4
2017-08-19T01:24:59.866Z,23.5
2017-08-19T01:26:07.878Z,23.3
2017-08-19T01:27:15.967Z,23.3
2017-08-19T01:28:24.054Z,23.5
2017-08-19T01:29:32.143Z,23.4
2017-08-19T01:30:40.240Z,23.4
2017-08-19T01:31:48.321Z,23.4
2017-08-19T01:32:56.410Z,23.4
2017-08-19T01:34:04.499Z,23.4
2017-08-19T01:35:12.595Z,23.4
2017-08-19T01:36:20.681Z,23.4
2017-08-19T01:37:28.772Z,23.3
2017-08-19T01:38:36.871Z,23.3
2017-08-19T01:39:44.952Z,23.3
2017-08-19T01:40:53.038Z,23.4
2017-08-19T01:42:01.128Z,23.4
2017-08-19T01:43:09.215Z,23.4
2017-08-19T01:44:17.313Z,23.4
2017-08-19T01:45:25.412Z,23.4
2017-08-19T01:46:33.492Z,23.4
2017-08-19T01:47:41.580Z,23.4
2017-08-19T01:48:49.668Z,23.4
2017-08-19T01:49:57.758Z,23.4
2017-08-19T01:51:05.868Z,23.4
2017-08-19T01:52:13.937Z,23.4
2017-08-19T01:53:22.024Z,23.4
2017-08-19T01:54:30.110Z,23.3
2017-08-19T01:55:38.197Z,23.3
2017-08-19T01:56:46.297Z,23.4
2017-08-19T01:57:54.384Z,23.3
2017-08-19T01:59:02.474Z,23.3
2017-08-19T02:00:10.561Z,23.3
2017-08-19T02:01:18.650Z,23.4
2017-08-19T02:02:26.777Z,23.4
2017-08-19T02:03:34.827Z,23.3
2017-08-19T02:04:42.914Z,23.3
2017-08-19T02:05:51.004Z,23.3
2017-08-19T02:06:59.092Z,23.3
2017-08-19T02:08:07.181Z,23.4
2017-08-19T02:09:15.270Z,23.3
2017-08-19T02:10:23.357Z,23.3
2017-08-19T02:11:31.446Z,23.3
2017-08-19T02:12:39.536Z,23.3
2017-08-19T02:13:47.621Z,23.3
2017-08-19T02:14:55.710Z,23.3
2017-08-19T02:16:03.798Z,23.3
2017-08-19T02:17:11.888Z,23.4
2017-08-19T02:18:19.976Z,23.3
2017-08-19T02:19:28.065Z,23.3
2017-08-19T02:20:36.150Z,23.4
2017-08-19T02:21:44.240Z,23.3
2017-08-19T02:22:52.328Z,23.3
2017-08-19T02:24:00.420Z,23.4
2017-08-19T02:25:08.506Z,23.3
2017-08-19T02:26:16.650Z,23.3
2017-08-19T02:27:24.691Z,23.3
2017-08-19T02:28:32.779Z,23.4
2017-08-19T02:29:40.867Z,23.3
2017-08-19T02:30:48.955Z,23.2
2017-08-19T02:31:57.044Z,23.3
2017-08-19T02:33:05.132Z,23.3
2017-08-19T02:34:13.226Z,23.3
2017-08-19T02:35:21.319Z,23.3
2017-08-19T02:36:29.412Z,23.2
2017-08-19T02:37:37.495Z,23.3
2017-08-19T02:38:45.590Z,23.3
2017-08-19T02:39:53.670Z,23.3
2017-08-19T02:41:01.765Z,23.3
2017-08-19T02:42:09.849Z,23.3
2017-08-19T02:43:17.937Z,23.3
2017-08-19T02:44:26.029Z,23.3
2017-08-19T02:45:34.126Z,23.3
2017-08-19T02:46:42.227Z,23.3
2017-08-19T02:47:50.292Z,23.2
2017-08-19T02:48:58.463Z,23.3
2017-08-19T02:50:06.477Z,23.2
2017-08-19T02:51:14.558Z,23.2
2017-08-19T02:52:22.648Z,23.2
2017-08-19T02:53:30.734Z,23.2
2017-08-19T02:54:38.824Z,23.2
2017-08-19T02:55:46.912Z,23.2
2017-08-19T02:56:55.000Z,23.2
2017-08-19T02:58:03.088Z,23.2
2017-08-19T02:59:11.177Z,23.2
2017-08-19T03:00:19.264Z,23.2
2017-08-19T03:01:27.354Z,23.1
2017-08-19T03:02:35.475Z,23.2
2017-08-19T03:03:43.541Z,23.1
2017-08-19T03:04:51.620Z,23.1
2017-08-19T03:05:59.706Z,23.2
2017-08-19T03:07:07.795Z,23.1
2017-08-19T03:08:15.882Z,23.2
2017-08-19T03:09:23.970Z,23.1
2017-08-19T03:10:32.060Z,23.1
2017-08-19T03:11:40.147Z,23.2
2017-08-19T03:12:48.236Z,23.1
2017-08-19T03:13:56.325Z,23.2
2017-08-19T03:15:04.414Z,23.2
2017-08-19T03:16:12.501Z,23.2
2017-08-19T03:17:20.593Z,23.1
2017-08-19T03:18:28.677Z,23.1
2017-08-19T03:19:36.766Z,23.2
2017-08-19T03:20:44.859Z,23.2
2017-08-19T03:21:52.945Z,23.1
2017-08-19T03:23:01.034Z,23.2
2017-08-19T03:24:09.120Z,23.1
2017-08-19T03:25:17.207Z,23.1
2017-08-19T03:26:25.295Z,23.1
2017-08-19T03:27:33.381Z,23.2
2017-08-19T03:28:41.472Z,23.1
2017-08-19T03:29:49.560Z,23.1
2017-08-19T03:30:57.709Z,23.2
2017-08-19T03:32:05.744Z,23.1
2017-08-19T03:33:13.869Z,23.1
2017-08-19T03:34:21.914Z,23.1
2017-08-19T03:35:30.004Z,23.2
2017-08-19T03:36:38.091Z,23.1
2017-08-19T03:37:46.178Z,23.1
2017-08-19T03:38:54.273Z,23.1
2017-08-19T03:40:02.353Z,23.1
2017-08-19T03:41:10.441Z,23.1
2017-08-19T03:42:18.534Z,23.1
2017-08-19T03:43:26.617Z,23.1
2017-08-19T03:44:34.832Z,23.1
2017-08-19T03:45:42.796Z,23.0
2017-08-19T03:46:50.884Z,23.1
2017-08-19T03:47:58.973Z,23.0
2017-08-19T03:49:07.060Z,23.1
2017-08-19T03:50:15.149Z,23.1
2017-08-19T03:51:23.246Z,23.1
2017-08-19T03:52:31.336Z,23.0
2017-08-19T03:53:39.424Z,23.1
2017-08-19T03:54:47.511Z,23.1
2017-08-19T03:55:55.598Z,23.1
2017-08-19T03:57:03.689Z,23.1
2017-08-19T03:58:11.776Z,23.0
2017-08-19T03:59:19.865Z,23.1
2017-08-19T04:00:27.952Z,23.1
2017-08-19T04:01:36.045Z,23.1
2017-08-19T04:02:44.129Z,23.0
2017-08-19T04:03:52.216Z,23.0
2017-08-19T04:05:00.304Z,23.1
2017-08-19T04:06:08.391Z,22.9
2017-08-19T04:07:16.481Z,22.9
2017-08-19T04:08:24.568Z,23.0
2017-08-19T04:09:32.664Z,22.9
2017-08-19T04:10:40.763Z,23.0
2017-08-19T04:11:48.850Z,23.0
2017-08-19T04:12:56.944Z,23.0
2017-08-19T04:14:05.027Z,22.9
2017-08-19T04:15:13.120Z,23.0
2017-08-19T04:16:21.206Z,23.0
2017-08-19T04:17:29.294Z,22.9
2017-08-19T04:18:37.382Z,23.0
2017-08-19T04:19:45.468Z,22.9
2017-08-19T04:20:53.555Z,23.0
2017-08-19T04:22:01.643Z,23.0
2017-08-19T04:23:09.732Z,23.1
2017-08-19T04:24:17.822Z,22.9
2017-08-19T04:25:25.912Z,22.9
2017-08-19T04:26:34.002Z,23.0
2017-08-19T04:27:42.086Z,22.9
2017-08-19T04:28:50.175Z,23.0
2017-08-19T04:29:58.262Z,23.0
2017-08-19T04:31:06.350Z,23.0
2017-08-19T04:32:14.438Z,23.0
2017-08-19T04:33:22.535Z,23.0
2017-08-19T04:34:30.613Z,22.9
2017-08-19T04:35:38.702Z,23.0
2017-08-19T04:36:46.789Z,22.9
2017-08-19T04:37:54.884Z,22.9
2017-08-19T04:39:02.967Z,22.9
2017-08-19T04:40:11.054Z,22.9
2017-08-19T04:41:19.145Z,22.9
2017-08-19T04:42:27.305Z,23.0
2017-08-19T04:43:35.329Z,22.9
2017-08-19T04:44:43.414Z,22.8
2017-08-19T04:45:51.502Z,22.9
2017-08-19T04:46:59.589Z,22.9
2017-08-19T04:48:07.678Z,23.0
2017-08-19T04:49:15.796Z,23.0
2017-08-19T04:50:23.865Z,22.9
2017-08-19T04:51:32.041Z,22.9
2017-08-19T04:52:40.044Z,22.8
2017-08-19T04:53:48.470Z,22.8
2017-08-19T04:54:56.221Z,22.8
2017-08-19T04:56:04.309Z,22.9
2017-08-19T04:57:12.654Z,22.9
2017-08-19T04:58:20.494Z,22.9
2017-08-19T04:59:28.694Z,22.8
2017-08-19T05:00:36.695Z,22.9
2017-08-19T05:01:44.785Z,22.9
2017-08-19T05:02:52.871Z,22.8
2017-08-19T05:04:00.962Z,22.9
2017-08-19T05:05:09.056Z,22.8
2017-08-19T05:06:17.241Z,22.9
2017-08-19T05:07:25.248Z,22.8
2017-08-19T05:08:33.425Z,22.9
2017-08-19T05:09:41.412Z,22.9
2017-08-19T05:10:49.579Z,22.9
2017-08-19T05:11:57.592Z,22.9
2017-08-19T05:13:05.788Z,22.9
2017-08-19T05:14:13.782Z,22.8
2017-08-19T05:15:22.000Z,22.9
2017-08-19T05:16:29.964Z,22.9
2017-08-19T05:17:38.064Z,22.9
2017-08-19T05:18:46.170Z,22.9
2017-08-19T05:19:54.234Z,22.8
2017-08-19T05:21:02.354Z,22.8
2017-08-19T05:22:10.535Z,22.8
2017-08-19T05:23:18.507Z,22.9
2017-08-19T05:24:26.597Z,22.9
2017-08-19T05:25:34.693Z,22.9
2017-08-19T05:26:42.781Z,22.9
2017-08-19T05:27:50.871Z,22.9
2017-08-19T05:28:58.964Z,22.9
2017-08-19T05:30:07.051Z,22.9
2017-08-19T05:31:15.140Z,22.9
2017-08-19T05:32:23.226Z,22.9
2017-08-19T05:33:31.313Z,22.8
2017-08-19T05:34:39.403Z,22.9
2017-08-19T05:35:47.489Z,22.9
2017-08-19T05:36:55.580Z,22.9
2017-08-19T05:38:03.666Z,22.8
2017-08-19T05:39:11.756Z,22.9
2017-08-19T05:40:19.842Z,22.8
2017-08-19T05:41:27.929Z,22.9
2017-08-19T05:42:36.016Z,22.9
2017-08-19T05:43:44.107Z,22.9
2017-08-19T05:44:52.192Z,22.9
2017-08-19T05:46:00.279Z,22.7
2017-08-19T05:47:08.388Z,22.8
2017-08-19T05:48:16.459Z,22.8
2017-08-19T05:49:24.545Z,22.9
2017-08-19T05:50:32.632Z,22.9
2017-08-19T05:51:40.727Z,22.8
2017-08-19T05:52:48.861Z,22.9
2017-08-19T05:53:56.906Z,22.8
2017-08-19T05:55:04.983Z,22.8
2017-08-19T05:56:13.069Z,22.9
2017-08-19T05:57:21.158Z,22.8
2017-08-19T05:58:29.256Z,22.8
2017-08-19T05:59:37.639Z,22.8
2017-08-19T06:00:45.422Z,22.8
2017-08-19T06:01:53.510Z,22.8
2017-08-19T06:03:01.620Z,22.8
2017-08-19T06:04:09.699Z,22.8
2017-08-19T06:05:17.787Z,22.8
2017-08-19T06:06:25.876Z,22.8
2017-08-19T06:07:33.964Z,22.8
2017-08-19T06:08:42.051Z,22.8
2017-08-19T06:09:50.139Z,22.8
2017-08-19T06:10:58.234Z,22.8
2017-08-19T06:12:06.313Z,22.8
2017-08-19T06:13:14.402Z,22.8
2017-08-19T06:14:22.504Z,22.8
2017-08-19T06:15:30.582Z,22.8
2017-08-19T06:16:38.666Z,22.8
2017-08-19T06:17:46.754Z,22.8
2017-08-19T06:18:54.842Z,22.8
2017-08-19T06:20:02.930Z,22.8
2017-08-19T06:21:11.018Z,22.8
2017-08-19T06:22:19.149Z,22.8
2017-08-19T06:23:27.195Z,22.8
2017-08-19T06:24:35.363Z,22.8
2017-08-19T06:25:43.394Z,22.8
2017-08-19T06:26:51.484Z,22.8
2017-08-19T06:27:59.546Z,22.8
2017-08-19T06:29:07.633Z,22.8
2017-08-19T06:30:15.746Z,22.8
2017-08-19T06:31:23.806Z,22.9
2017-08-19T06:32:31.972Z,22.8
2017-08-19T06:33:39.984Z,22.8
2017-08-19T06:34:48.073Z,22.8
2017-08-19T06:35:56.774Z,22.8
2017-08-19T06:37:04.650Z,22.8
2017-08-19T06:38:12.337Z,22.8
2017-08-19T06:39:20.423Z,22.8
2017-08-19T06:40:28.510Z,22.8
2017-08-19T06:41:37.084Z,22.8
2017-08-19T06:42:45.369Z,22.8
2017-08-19T06:43:52.774Z,22.8
2017-08-19T06:45:00.936Z,22.8
2017-08-19T06:46:08.982Z,22.8
2017-08-19T06:47:17.042Z,22.8
2017-08-19T06:48:25.128Z,22.8
2017-08-19T06:49:33.222Z,22.9
2017-08-19T06:50:41.312Z,22.8
2017-08-19T06:51:49.403Z,22.8
2017-08-19T06:52:57.522Z,22.8
2017-08-19T06:54:05.601Z,22.8
2017-08-19T06:55:13.978Z,22.8
2017-08-19T06:56:21.816Z,22.8
2017-08-19T06:57:29.840Z,22.8
2017-08-19T06:58:37.927Z,22.9
2017-08-19T06:59:46.023Z,22.8
2017-08-19T07:00:54.103Z,22.8
2017-08-19T07:02:02.194Z,22.8
2017-08-19T07:03:10.279Z,22.7
2017-08-19T07:04:18.369Z,22.8
2017-08-19T07:05:26.728Z,22.7
2017-08-19T07:06:34.546Z,22.7
2017-08-19T07:07:42.906Z,22.9
2017-08-19T07:08:50.725Z,22.8
2017-08-19T07:09:58.805Z,22.8
2017-08-19T07:11:06.895Z,22.7
2017-08-19T07:12:14.988Z,22.8
2017-08-19T07:13:23.121Z,22.8
2017-08-19T07:14:31.166Z,22.8
2017-08-19T07:15:39.254Z,22.9
2017-08-19T07:16:47.345Z,22.8
2017-08-19T07:17:55.633Z,22.8
2017-08-19T07:19:03.518Z,22.8
2017-08-19T07:20:11.625Z,22.8
2017-08-19T07:21:19.697Z,22.9
2017-08-19T07:22:27.782Z,22.8
2017-08-19T07:23:35.893Z,22.8
2017-08-19T07:24:43.961Z,22.8
2017-08-19T07:25:52.699Z,22.8
2017-08-19T07:27:00.135Z,22.8
2017-08-19T07:28:08.226Z,22.7
2017-08-19T07:29:17.331Z,22.7
2017-08-19T07:30:24.719Z,22.8
2017-08-19T07:31:32.500Z,22.8
2017-08-19T07:32:40.578Z,22.8
2017-08-19T07:33:48.666Z,22.8
2017-08-19T07:34:56.761Z,22.8
2017-08-19T07:36:04.844Z,22.8
2017-08-19T07:37:12.932Z,22.8
2017-08-19T07:38:21.690Z,22.8
2017-08-19T07:39:29.112Z,22.8
2017-08-19T07:40:37.196Z,22.8
2017-08-19T07:41:45.283Z,22.8
2017-08-19T07:42:53.374Z,22.7
2017-08-19T07:44:01.460Z,22.8
2017-08-19T07:45:09.544Z,22.8
2017-08-19T07:46:17.642Z,22.8
2017-08-19T07:47:26.300Z,22.8
2017-08-19T07:48:33.813Z,22.8
2017-08-19T07:49:41.905Z,22.7
2017-08-19T07:50:49.990Z,22.8
2017-08-19T07:51:58.078Z,22.8
2017-08-19T07:53:06.165Z,22.8
2017-08-19T07:54:14.253Z,22.7
2017-08-19T07:55:22.364Z,22.8
2017-08-19T07:56:30.429Z,22.8
2017-08-19T07:57:38.518Z,22.7
2017-08-19T07:58:46.738Z,22.8
2017-08-19T07:59:54.693Z,22.7
2017-08-19T08:01:03.285Z,22.8
2017-08-19T08:02:10.868Z,22.8
2017-08-19T08:03:19.052Z,22.8
2017-08-19T08:04:27.042Z,22.7
2017-08-19T08:05:35.131Z,22.7
2017-08-19T08:06:43.242Z,22.7
2017-08-19T08:07:51.309Z,22.8
2017-08-19T08:08:59.394Z,22.8
2017-08-19T08:10:07.483Z,22.8
2017-08-19T08:11:15.733Z,22.8
2017-08-19T08:12:23.659Z,22.8
2017-08-19T08:13:31.746Z,22.7
2017-08-19T08:14:39.837Z,22.7
2017-08-19T08:15:48.534Z,22.8
2017-08-19T08:16:56.010Z,22.7
2017-08-19T08:18:04.179Z,22.8
2017-08-19T08:19:12.188Z,22.8
2017-08-19T08:20:21.053Z,22.7
2017-08-19T08:21:28.372Z,22.8
2017-08-19T08:22:36.462Z,22.6
2017-08-19T08:23:44.838Z,22.8
2017-08-19T08:24:53.174Z,22.7
2017-08-19T08:26:00.713Z,22.7
2017-08-19T08:27:09.054Z,22.7
2017-08-19T08:28:17.639Z,22.8
2017-08-19T08:29:25.337Z,22.7
2017-08-19T08:30:33.110Z,22.8
2017-08-19T08:31:41.260Z,22.7
2017-08-19T08:32:49.363Z,22.7
2017-08-19T08:33:57.425Z,22.7
2017-08-19T08:35:05.433Z,22.7
2017-08-19T08:36:13.513Z,22.6
2017-08-19T08:37:21.600Z,22.7
2017-08-19T08:38:29.690Z,22.7
2017-08-19T08:39:37.775Z,22.6
2017-08-19T08:40:45.864Z,22.6
2017-08-19T08:41:53.951Z,22.6
2017-08-19T08:43:02.040Z,22.6
2017-08-19T08:44:10.327Z,22.6
2017-08-19T08:45:18.219Z,22.7
2017-08-19T08:46:26.304Z,22.6
2017-08-19T08:47:34.392Z,22.6
2017-08-19T08:48:42.480Z,22.6
2017-08-19T08:49:50.567Z,22.6
2017-08-19T08:50:58.654Z,22.6
2017-08-19T08:52:06.743Z,22.6
2017-08-19T08:53:14.886Z,22.7
2017-08-19T08:54:22.920Z,22.6
2017-08-19T08:55:31.006Z,22.6
2017-08-19T08:56:39.095Z,22.6
2017-08-19T08:57:47.183Z,22.6
2017-08-19T08:58:55.277Z,22.5
2017-08-19T09:00:03.357Z,22.6
2017-08-19T09:01:11.446Z,22.6
2017-08-19T09:02:19.540Z,22.6
2017-08-19T09:03:27.621Z,22.6
2017-08-19T09:04:35.711Z,22.6
2017-08-19T09:05:43.800Z,22.6
2017-08-19T09:06:51.885Z,22.6
2017-08-19T09:08:00.246Z,22.6
2017-08-19T09:09:08.064Z,22.6
2017-08-19T09:10:16.152Z,22.6
2017-08-19T09:11:24.236Z,22.7
2017-08-19T09:12:32.330Z,22.6
2017-08-19T09:13:40.484Z,22.6
2017-08-19T09:14:48.514Z,22.6
2017-08-19T09:15:56.602Z,22.6
2017-08-19T09:17:04.690Z,22.6
2017-08-19T09:18:12.814Z,22.6
2017-08-19T09:19:20.871Z,22.6
2017-08-19T09:20:28.951Z,22.6
2017-08-19T09:21:37.040Z,22.6
2017-08-19T09:22:45.127Z,22.6
2017-08-19T09:23:53.217Z,22.6
2017-08-19T09:25:01.300Z,22.6
2017-08-19T09:26:09.394Z,22.6
2017-08-19T09:27:17.493Z,22.6
2017-08-19T09:28:25.568Z,22.6
2017-08-19T09:29:33.656Z,22.7
2017-08-19T09:30:41.768Z,22.6
2017-08-19T09:31:49.832Z,22.7
2017-08-19T09:32:57.921Z,22.6
2017-08-19T09:34:06.064Z,22.6
2017-08-19T09:35:14.095Z,22.6
2017-08-19T09:36:22.278Z,22.6
2017-08-19T09:37:30.278Z,22.6
2017-08-19T09:38:38.365Z,22.7
2017-08-19T09:39:46.454Z,22.6
2017-08-19T09:40:54.542Z,22.7
2017-08-19T09:42:02.631Z,22.6
2017-08-19T09:43:10.728Z,22.6
2017-08-19T09:44:18.817Z,22.7
2017-08-19T09:45:26.922Z,22.6
2017-08-19T09:46:35.000Z,22.6
2017-08-19T09:47:43.083Z,22.6
2017-08-19T09:48:51.171Z,22.7
2017-08-19T09:49:59.265Z,22.7
2017-08-19T09:51:07.349Z,22.8
2017-08-19T09:52:15.435Z,22.8
2017-08-19T09:53:23.522Z,22.8
2017-08-19T09:54:31.623Z,22.8
2017-08-19T09:55:39.711Z,22.8
2017-08-19T09:56:47.797Z,22.7
2017-08-19T09:57:55.887Z,22.8
2017-08-19T09:59:03.974Z,22.7
2017-08-19T10:00:12.062Z,22.7
2017-08-19T10:01:20.156Z,22.8
2017-08-19T10:02:28.237Z,22.8
2017-08-19T10:03:36.326Z,22.8
2017-08-19T10:04:44.435Z,22.8
2017-08-19T10:05:52.530Z,22.8
2017-08-19T10:07:00.604Z,22.7
2017-08-19T10:08:08.694Z,22.7
2017-08-19T10:09:16.903Z,22.8
2017-08-19T10:10:24.927Z,22.8
2017-08-19T10:11:32.967Z,22.8
2017-08-19T10:12:41.152Z,22.8
2017-08-19T10:13:49.187Z,22.7
2017-08-19T10:14:57.406Z,22.8
2017-08-19T10:16:05.350Z,22.8
2017-08-19T10:17:13.540Z,22.8
2017-08-19T10:18:21.552Z,22.8
2017-08-19T10:19:29.807Z,22.8
2017-08-19T10:20:37.757Z,22.8
2017-08-19T10:21:45.825Z,22.8
2017-08-19T10:22:53.914Z,22.8
2017-08-19T10:24:02.003Z,22.8
2017-08-19T10:25:10.109Z,22.7
2017-08-19T10:26:18.189Z,22.8
2017-08-19T10:27:26.277Z,22.7
2017-08-19T10:28:34.361Z,22.7
2017-08-19T10:29:42.455Z,22.8
2017-08-19T10:30:50.612Z,22.8
2017-08-19T10:31:58.816Z,22.8
2017-08-19T10:33:06.719Z,22.8
2017-08-19T10:34:14.815Z,22.8
2017-08-19T10:35:22.998Z,22.9
2017-08-19T10:36:31.086Z,22.8
2017-08-19T10:37:39.080Z,22.8
2017-08-19T10:38:47.452Z,22.8
2017-08-19T10:39:55.260Z,22.8
2017-08-19T10:41:03.360Z,22.8
2017-08-19T10:42:11.597Z,22.8
2017-08-19T10:43:19.588Z,22.8
2017-08-19T10:44:27.652Z,22.8
2017-08-19T10:45:35.727Z,22.8
2017-08-19T10:46:44.274Z,22.8
2017-08-19T10:47:51.909Z,22.9
2017-08-19T10:48:59.998Z,22.9
2017-08-19T10:50:08.097Z,22.9
2017-08-19T10:51:16.262Z,22.8
2017-08-19T10:52:24.278Z,22.8
2017-08-19T10:53:32.365Z,22.9
2017-08-19T10:54:40.456Z,22.9
2017-08-19T10:55:48.596Z,22.9
2017-08-19T10:56:56.645Z,22.8
2017-08-19T10:58:05.115Z,22.8
2017-08-19T10:59:12.833Z,22.8
2017-08-19T11:00:21.033Z,22.9
2017-08-19T11:01:29.011Z,22.9
2017-08-19T11:02:37.205Z,22.8
2017-08-19T11:03:45.190Z,22.8
2017-08-19T11:04:53.703Z,22.9
2017-08-19T11:06:01.377Z,22.9
2017-08-19T11:07:09.474Z,22.9
2017-08-19T11:08:17.578Z,22.9
2017-08-19T11:09:26.297Z,23.0
2017-08-19T11:10:33.731Z,22.9
2017-08-19T11:11:41.839Z,22.9
2017-08-19T11:12:49.939Z,22.9
2017-08-19T11:13:58.008Z,22.9
2017-08-19T11:15:06.098Z,22.9
2017-08-19T11:16:14.188Z,22.9
2017-08-19T11:17:22.279Z,22.9
2017-08-19T11:18:30.369Z,22.9
2017-08-19T11:19:38.476Z,22.9
2017-08-19T11:20:46.571Z,23.0
2017-08-19T11:21:54.655Z,22.9
2017-08-19T11:23:02.952Z,23.0
2017-08-19T11:24:11.028Z,23.0
2017-08-19T11:25:19.025Z,23.0
2017-08-19T11:26:27.122Z,22.9
2017-08-19T11:27:35.618Z,22.9
2017-08-19T11:28:43.204Z,22.9
2017-08-19T11:29:51.300Z,22.9
2017-08-19T11:30:59.392Z,23.0
2017-08-19T11:32:07.505Z,22.9
2017-08-19T11:33:16.152Z,23.0
2017-08-19T11:34:23.788Z,23.0
2017-08-19T11:35:31.842Z,22.9
2017-08-19T11:36:40.283Z,23.0
2017-08-19T11:37:48.107Z,23.0
2017-08-19T11:38:56.050Z,22.9
2017-08-19T11:40:04.140Z,22.9
2017-08-19T11:41:12.231Z,22.9
2017-08-19T11:42:20.318Z,22.9
2017-08-19T11:43:28.407Z,23.0
2017-08-19T11:44:36.496Z,23.0
2017-08-19T11:45:44.693Z,23.0
2017-08-19T11:46:52.682Z,23.1
2017-08-19T11:48:00.777Z,22.9
2017-08-19T11:49:08.960Z,23.0
2017-08-19T11:50:16.952Z,22.9
2017-08-19T11:51:25.042Z,22.9
2017-08-19T11:52:33.133Z,23.1
2017-08-19T11:53:41.251Z,23.0
2017-08-19T11:54:49.311Z,23.1
2017-08-19T11:55:57.398Z,23.0
2017-08-19T11:57:05.644Z,22.9
2017-08-19T11:58:13.575Z,23.0
2017-08-19T11:59:21.663Z,23.0
2017-08-19T12:00:29.753Z,23.0
2017-08-19T12:01:37.948Z,23.0
2017-08-19T12:02:45.931Z,23.0
2017-08-19T12:03:54.018Z,23.0
2017-08-19T12:05:02.737Z,23.1
2017-08-19T12:06:10.195Z,23.0
2017-08-19T12:07:18.282Z,23.0
2017-08-19T12:08:26.370Z,23.0
2017-08-19T12:09:34.460Z,22.9
2017-08-19T12:10:42.580Z,22.9
2017-08-19T12:11:50.638Z,23.0
2017-08-19T12:12:59.274Z,23.1
2017-08-19T12:14:06.949Z,23.0
2017-08-19T12:15:14.907Z,23.0
2017-08-19T12:16:22.989Z,23.1
2017-08-19T12:17:31.080Z,23.1
2017-08-19T12:18:39.168Z,23.0
2017-08-19T12:19:47.257Z,23.1
2017-08-19T12:20:55.345Z,23.1
2017-08-19T12:22:03.906Z,23.1
2017-08-19T12:23:11.555Z,23.1
2017-08-19T12:24:19.640Z,23.1
2017-08-19T12:25:27.817Z,23.1
2017-08-19T12:26:35.785Z,23.1
2017-08-19T12:27:43.874Z,23.1
2017-08-19T12:28:51.989Z,23.1
2017-08-19T12:30:00.194Z,23.1
2017-08-19T12:31:08.145Z,23.1
2017-08-19T12:32:16.233Z,23.1
2017-08-19T12:33:24.319Z,23.1
2017-08-19T12:34:32.406Z,23.1
2017-08-19T12:35:40.507Z,23.1
2017-08-19T12:36:48.592Z,23.0
2017-08-19T12:37:56.682Z,23.1
2017-08-19T12:39:04.768Z,23.1
2017-08-19T12:40:12.865Z,23.1
2017-08-19T12:41:20.949Z,23.1
2017-08-19T12:42:29.059Z,23.0
2017-08-19T12:43:37.123Z,23.1
2017-08-19T12:44:45.335Z,23.1
2017-08-19T12:45:53.302Z,23.1
2017-08-19T12:47:01.421Z,23.1
2017-08-19T12:48:09.479Z,23.1
2017-08-19T12:49:17.985Z,23.1
2017-08-19T12:50:25.694Z,23.1
2017-08-19T12:51:33.745Z,23.1
2017-08-19T12:52:41.833Z,23.0
2017-08-19T12:53:49.921Z,23.1
2017-08-19T12:54:58.016Z,23.1
2017-08-19T12:56:06.481Z,23.1
2017-08-19T12:57:14.275Z,23.1
2017-08-19T12:58:22.603Z,23.1
2017-08-19T12:59:30.373Z,23.1
2017-08-19T13:00:38.473Z,23.1
2017-08-19T13:01:46.869Z,23.1
2017-08-19T13:02:54.635Z,23.1
2017-08-19T13:04:02.723Z,23.1
2017-08-19T13:05:10.814Z,23.1
2017-08-19T13:06:18.925Z,23.1
2017-08-19T13:07:26.992Z,23.1
2017-08-19T13:08:35.087Z,23.1
2017-08-19T13:09:43.182Z,23.1
2017-08-19T13:10:51.263Z,23.1
2017-08-19T13:11:59.352Z,23.1
2017-08-19T13:13:07.441Z,23.2
2017-08-19T13:14:15.532Z,23.1
2017-08-19T13:15:23.645Z,23.1
2017-08-19T13:16:31.709Z,23.1
2017-08-19T13:17:39.798Z,23.1
2017-08-19T13:18:47.884Z,23.2
2017-08-19T13:19:55.973Z,23.2
2017-08-19T13:21:04.061Z,23.1
2017-08-19T13:22:12.151Z,23.2
2017-08-19T13:23:20.239Z,23.2
2017-08-19T13:24:28.411Z,23.2
2017-08-19T13:25:36.418Z,23.1
2017-08-19T13:26:44.514Z,23.2
2017-08-19T13:27:52.597Z,23.2
2017-08-19T13:29:00.933Z,23.2
2017-08-19T13:30:14.302Z,23.2
2017-08-19T13:31:16.866Z,23.2
2017-08-19T13:32:25.026Z,23.2
2017-08-19T13:33:33.243Z,23.1
2017-08-19T13:34:41.710Z,23.2
2017-08-19T13:35:49.753Z,23.2
2017-08-19T13:36:57.361Z,23.1
2017-08-19T13:38:05.648Z,23.1
2017-08-19T13:39:13.807Z,23.2
2017-08-19T13:40:21.966Z,23.1
2017-08-19T13:41:29.953Z,23.2
2017-08-19T13:42:38.066Z,23.1
2017-08-19T13:43:46.288Z,23.1
2017-08-19T13:44:54.470Z,23.1
2017-08-19T13:46:02.284Z,23.2
2017-08-19T13:47:11.171Z,23.2
2017-08-19T13:48:18.567Z,23.2
2017-08-19T13:49:26.584Z,23.2
2017-08-19T13:50:34.582Z,23.2
2017-08-19T13:51:43.170Z,23.2
2017-08-19T13:52:50.993Z,23.1
2017-08-19T13:53:58.780Z,23.1
2017-08-19T13:55:07.283Z,23.2
2017-08-19T13:56:15.333Z,23.2
2017-08-19T13:57:23.144Z,23.1
2017-08-19T13:58:31.301Z,23.1
2017-08-19T13:59:39.422Z,23.2
2017-08-19T14:00:47.390Z,23.1
2017-08-19T14:01:55.391Z,23.2
2017-08-19T14:03:03.396Z,23.2
2017-08-19T14:04:12.117Z,23.1
2017-08-19T14:05:19.561Z,23.2
2017-08-19T14:06:27.654Z,23.2
2017-08-19T14:07:35.868Z,23.1
2017-08-19T14:08:43.835Z,23.1
2017-08-19T14:09:51.922Z,23.2
2017-08-19T14:11:00.011Z,23.1
2017-08-19T14:12:08.099Z,23.1
2017-08-19T14:13:16.190Z,23.1
2017-08-19T14:14:24.284Z,23.1
2017-08-19T14:15:32.372Z,23.1
2017-08-19T14:16:40.459Z,23.2
2017-08-19T14:17:48.544Z,23.1
2017-08-19T14:18:56.639Z,23.2
2017-08-19T14:20:04.725Z,23.2
2017-08-19T14:21:12.819Z,23.1
2017-08-19T14:22:20.908Z,23.2
2017-08-19T14:23:28.998Z,23.2
2017-08-19T14:24:37.084Z,23.1
2017-08-19T14:25:45.173Z,23.1
2017-08-19T14:26:53.409Z,23.2
2017-08-19T14:28:01.351Z,23.1
2017-08-19T14:29:09.442Z,23.1
2017-08-19T14:30:17.529Z,23.2
2017-08-19T14:31:25.617Z,23.2
2017-08-19T14:32:33.706Z,23.2
2017-08-19T14:33:41.794Z,23.1
2017-08-19T14:34:49.883Z,23.2
2017-08-19T14:35:57.972Z,23.2
2017-08-19T14:37:06.071Z,23.2
2017-08-19T14:38:14.158Z,23.1
2017-08-19T14:39:22.247Z,23.1
2017-08-19T14:40:30.337Z,23.1
2017-08-19T14:41:38.418Z,23.2
2017-08-19T14:42:46.510Z,23.1
2017-08-19T14:43:54.596Z,23.1
2017-08-19T14:45:02.701Z,23.1
2017-08-19T14:46:10.782Z,23.1
2017-08-19T14:47:18.871Z,23.1
2017-08-19T14:48:26.959Z,23.0
2017-08-19T14:49:35.049Z,22.9
2017-08-19T14:50:43.136Z,23.0
2017-08-19T14:51:51.224Z,22.9
2017-08-19T14:52:59.309Z,22.9
2017-08-19T14:54:07.402Z,22.9
2017-08-19T14:55:15.488Z,23.0
2017-08-19T14:56:23.580Z,22.9
2017-08-19T14:57:31.663Z,23.0
2017-08-19T14:58:39.754Z,22.9
2017-08-19T14:59:47.842Z,22.9
2017-08-19T15:00:55.935Z,23.0
2017-08-19T15:02:04.016Z,22.9
2017-08-19T15:03:12.104Z,22.9
2017-08-19T15:04:20.194Z,23.0
2017-08-19T15:05:28.283Z,23.0
2017-08-19T15:06:36.373Z,22.9